createdAt,value
2017-09-25T00:02:26.734Z,11.40
2017-09-25T00:04:54.205Z,11.53
2017-09-25T00:07:21.641Z,19.23
2017-09-25T00:09:49.113Z,9.90
2017-09-25T00:12:16.566Z,8.40
2017-09-25T00:14:44.035Z,10.53
2017-09-25T00:17:11.502Z,9.80
2017-09-25T00:19:38.960Z,14.73
2017-09-25T00:22:06.414Z,8.67
2017-09-25T00:24:33.909Z,12.37
2017-09-25T00:27:02.146Z,11.03
2017-09-25T00:29:29.603Z,16.60
2017-09-25T00:31:57.063Z,12.07
2017-09-25T00:34:24.518Z,12.17
2017-09-25T00:36:51.986Z,9.90
2017-09-25T00:39:19.438Z,15.90
2017-09-25T00:41:46.894Z,12.90
2017-09-25T00:44:14.345Z,9.70
2017-09-25T00:46:41.837Z,14.20
2017-09-25T00:49:09.266Z,11.83
2017-09-25T00:51:36.726Z,10.07
2017-09-25T00:54:04.191Z,12.00
2017-09-25T00:56:31.642Z,12.63
2017-09-25T00:58:59.105Z,15.50
2017-09-25T01:04:42.877Z,8.80
2017-09-25T01:07:10.336Z,14.33
2017-09-25T01:09:38.124Z,10.90
2017-09-25T01:12:05.746Z,11.77
2017-09-25T01:14:33.208Z,14.00
2017-09-25T01:17:00.657Z,10.77
2017-09-25T01:19:28.114Z,10.23
2017-09-25T01:21:55.573Z,11.60
2017-09-25T01:24:23.034Z,10.80
2017-09-25T01:26:50.481Z,10.30
2017-09-25T01:29:17.945Z,10.87
2017-09-25T01:31:45.405Z,10.00
2017-09-25T01:34:12.879Z,12.63
2017-09-25T01:36:40.322Z,11.57
2017-09-25T01:39:07.794Z,11.40
2017-09-25T01:41:35.255Z,11.80
2017-09-25T01:44:03.477Z,9.73
2017-09-25T01:46:30.934Z,13.60
2017-09-25T01:48:58.441Z,15.80
2017-09-25T01:51:25.894Z,13.40
2017-09-25T01:53:53.358Z,11.30
2017-09-25T01:56:20.814Z,10.30
2017-09-25T01:58:48.278Z,11.57
2017-09-25T02:01:15.738Z,11.07
2017-09-25T02:03:43.953Z,11.70
2017-09-25T02:06:11.421Z,14.17
2017-09-25T02:08:38.877Z,13.00
2017-09-25T02:11:06.330Z,11.37
2017-09-25T02:13:33.773Z,10.80
2017-09-25T02:16:01.241Z,11.77
2017-09-25T02:18:28.693Z,11.40
2017-09-25T02:20:56.150Z,10.13
2017-09-25T02:23:23.604Z,13.73
2017-09-25T02:25:51.821Z,16.63
2017-09-25T02:28:19.267Z,15.30
2017-09-25T02:30:46.746Z,12.80
2017-09-25T02:33:14.202Z,12.57
2017-09-25T02:35:41.650Z,12.47
2017-09-25T02:38:09.112Z,10.87
2017-09-25T02:40:36.563Z,10.10
2017-09-25T02:43:04.018Z,9.27
2017-09-25T02:45:31.465Z,15.67
2017-09-25T02:47:58.933Z,11.60
2017-09-25T02:50:26.386Z,12.83
2017-09-25T02:52:53.833Z,10.33
2017-09-25T02:55:21.301Z,9.90
2017-09-25T02:57:48.767Z,12.90
2017-09-25T03:00:16.216Z,9.57
2017-09-25T03:02:44.432Z,9.73
2017-09-25T03:05:12.655Z,10.10
2017-09-25T03:07:40.109Z,14.53
2017-09-25T03:10:07.580Z,10.43
2017-09-25T03:12:35.038Z,13.10
2017-09-25T03:15:03.263Z,15.50
2017-09-25T03:17:31.465Z,8.80
2017-09-25T03:19:59.694Z,11.43
2017-09-25T03:22:27.953Z,10.00
2017-09-25T03:24:55.414Z,12.03
2017-09-25T03:27:24.361Z,9.97
2017-09-25T03:29:51.838Z,11.43
2017-09-25T03:32:19.294Z,10.40
2017-09-25T03:34:46.750Z,10.97
2017-09-25T03:37:14.975Z,8.80
2017-09-25T03:39:42.433Z,10.47
2017-09-25T03:42:10.646Z,11.40
2017-09-25T03:44:38.886Z,10.20
2017-09-25T03:47:07.098Z,10.40
2017-09-25T03:49:34.554Z,9.73
2017-09-25T03:52:02.002Z,9.50
2017-09-25T03:54:30.222Z,10.33
2017-09-25T03:56:58.449Z,10.53
2017-09-25T03:59:25.908Z,9.73
2017-09-25T04:01:53.369Z,10.63
2017-09-25T04:04:20.842Z,11.63
2017-09-25T04:06:48.306Z,13.30
2017-09-25T04:09:15.758Z,11.07
2017-09-25T04:11:43.218Z,11.47
2017-09-25T04:14:10.661Z,12.87
2017-09-25T04:16:38.117Z,13.30
2017-09-25T04:19:06.325Z,11.43
2017-09-25T04:21:33.798Z,16.43
2017-09-25T04:24:02.046Z,13.63
2017-09-25T04:26:29.514Z,27.27
2017-09-25T04:28:56.957Z,14.03
2017-09-25T04:31:25.177Z,12.50
2017-09-25T04:33:53.392Z,10.70
2017-09-25T04:36:20.846Z,11.97
2017-09-25T04:38:48.303Z,14.00
2017-09-25T04:41:15.768Z,13.37
2017-09-25T04:43:43.226Z,13.90
2017-09-25T04:46:10.685Z,11.30
2017-09-25T04:48:38.919Z,16.27
2017-09-25T04:51:06.373Z,10.20
2017-09-25T04:53:33.822Z,10.40
2017-09-25T04:56:01.290Z,13.37
2017-09-25T04:58:28.742Z,10.43
2017-09-25T05:00:56.231Z,12.17
2017-09-25T05:03:23.685Z,12.40
2017-09-25T05:05:51.133Z,11.40
2017-09-25T05:08:18.605Z,12.73
2017-09-25T05:10:46.079Z,14.07
2017-09-25T05:13:13.539Z,12.47
2017-09-25T05:15:41.006Z,10.67
2017-09-25T05:18:08.494Z,13.30
2017-09-25T05:20:36.718Z,15.07
2017-09-25T05:23:04.173Z,13.30
2017-09-25T05:25:31.626Z,13.57
2017-09-25T05:27:59.089Z,14.50
2017-09-25T05:30:26.533Z,9.93
2017-09-25T05:32:54.001Z,11.90
2017-09-25T05:35:21.455Z,16.83
2017-09-25T05:37:48.912Z,10.40
2017-09-25T05:40:16.381Z,13.70
2017-09-25T05:42:43.847Z,14.50
2017-09-25T05:45:11.302Z,14.40
2017-09-25T05:47:38.775Z,14.67
2017-09-25T05:50:06.230Z,13.43
2017-09-25T05:52:33.685Z,14.33
2017-09-25T05:55:01.146Z,12.30
2017-09-25T05:57:28.597Z,15.87
2017-09-25T05:59:56.062Z,16.43
2017-09-25T06:02:23.514Z,12.50
2017-09-25T06:04:50.974Z,12.10
2017-09-25T06:07:18.434Z,13.10
2017-09-25T06:09:45.891Z,14.87
2017-09-25T06:12:14.106Z,11.50
2017-09-25T06:14:41.587Z,12.80
2017-09-25T06:17:09.050Z,14.20
2017-09-25T06:19:36.506Z,13.43
2017-09-25T06:22:03.954Z,12.50
2017-09-25T06:24:31.410Z,13.53
2017-09-25T06:26:58.857Z,13.43
2017-09-25T06:29:27.086Z,13.80
2017-09-25T06:31:54.541Z,13.33
2017-09-25T06:34:21.998Z,12.53
2017-09-25T06:36:49.457Z,12.47
2017-09-25T06:39:18.407Z,11.70
2017-09-25T06:41:45.870Z,14.43
2017-09-25T06:44:13.321Z,14.23
2017-09-25T06:46:40.790Z,14.17
2017-09-25T06:49:08.261Z,13.70
2017-09-25T06:51:36.486Z,11.80
2017-09-25T06:54:04.689Z,13.87
2017-09-25T06:56:32.150Z,13.23
2017-09-25T06:58:59.602Z,13.43
2017-09-25T07:01:27.105Z,12.43
2017-09-25T07:03:54.565Z,11.93
2017-09-25T07:06:22.046Z,12.60
2017-09-25T07:08:50.260Z,14.27
2017-09-25T07:11:18.286Z,15.37
2017-09-25T07:13:46.514Z,11.27
2017-09-25T07:16:13.965Z,13.60
2017-09-25T07:18:41.438Z,14.47
2017-09-25T07:21:09.798Z,17.00
2017-09-25T07:23:38.390Z,14.53
2017-09-25T07:26:05.883Z,12.87
2017-09-25T07:28:33.357Z,13.80
2017-09-25T07:31:01.576Z,15.53
2017-09-25T07:33:29.801Z,14.90
2017-09-25T07:35:58.016Z,13.80
2017-09-25T07:38:25.481Z,13.80
2017-09-25T07:40:52.942Z,14.37
2017-09-25T07:43:20.454Z,14.57
2017-09-25T07:45:48.675Z,14.30
2017-09-25T07:48:16.134Z,12.80
2017-09-25T07:50:43.590Z,18.43
2017-09-25T07:53:11.054Z,13.57
2017-09-25T07:55:38.516Z,14.30
2017-09-25T07:58:05.970Z,14.27
2017-09-25T08:00:33.445Z,14.90
2017-09-25T08:03:00.929Z,15.43
2017-09-25T08:05:28.425Z,15.70
2017-09-25T08:07:55.886Z,17.60
2017-09-25T08:10:23.356Z,18.80
2017-09-25T08:12:50.814Z,14.70
2017-09-25T08:15:18.275Z,18.53
2017-09-25T08:17:45.734Z,17.10
2017-09-25T08:20:13.192Z,14.50
2017-09-25T08:22:40.646Z,18.07
2017-09-25T08:25:08.119Z,17.00
2017-09-25T08:27:35.586Z,16.83
2017-09-25T08:30:03.047Z,17.20
2017-09-25T08:32:30.502Z,15.80
2017-09-25T08:34:58.738Z,17.77
2017-09-25T08:37:26.201Z,18.70
2017-09-25T08:39:53.653Z,17.50
2017-09-25T08:42:21.117Z,15.33
2017-09-25T08:44:48.588Z,17.70
2017-09-25T08:47:16.046Z,18.30
2017-09-25T08:49:43.502Z,22.33
2017-09-25T08:52:10.971Z,11.97
2017-09-25T08:54:38.425Z,15.03
2017-09-25T08:57:05.882Z,15.80
2017-09-25T08:59:33.358Z,15.20
2017-09-25T09:02:01.578Z,16.73
2017-09-25T09:04:29.042Z,15.70
2017-09-25T09:06:56.530Z,14.87
2017-09-25T09:09:23.974Z,17.27
2017-09-25T09:11:51.446Z,15.47
2017-09-25T09:14:20.402Z,17.40
2017-09-25T09:16:47.870Z,20.60
2017-09-25T09:19:15.323Z,16.00
2017-09-25T09:21:42.784Z,19.43
2017-09-25T09:24:10.252Z,20.30
2017-09-25T09:26:37.707Z,17.30
2017-09-25T09:29:05.175Z,16.20
2017-09-25T09:31:32.626Z,18.57
2017-09-25T09:34:00.094Z,17.10
2017-09-25T09:36:27.557Z,17.40
2017-09-25T09:38:55.009Z,20.93
2017-09-25T09:41:22.458Z,17.83
2017-09-25T09:43:49.922Z,17.17
2017-09-25T09:46:17.386Z,16.83
2017-09-25T09:48:44.841Z,19.90
2017-09-25T09:51:12.299Z,23.00
2017-09-25T09:53:39.769Z,19.80
2017-09-25T09:56:07.994Z,15.80
2017-09-25T09:58:35.474Z,16.23
2017-09-25T10:01:02.930Z,18.83
2017-09-25T10:03:30.386Z,15.03
2017-09-25T10:05:57.852Z,15.30
2017-09-25T10:08:25.310Z,19.33
2017-09-25T10:10:52.766Z,19.50
2017-09-25T10:13:20.242Z,16.63
2017-09-25T10:15:47.698Z,19.93
2017-09-25T10:18:15.172Z,15.40
2017-09-25T10:20:43.393Z,15.90
2017-09-25T10:23:10.863Z,16.60
2017-09-25T10:25:39.123Z,18.07
2017-09-25T10:28:06.575Z,15.97
2017-09-25T10:30:34.043Z,18.10
2017-09-25T10:33:01.497Z,18.67
2017-09-25T10:35:28.963Z,14.63
2017-09-25T10:37:56.593Z,18.63
2017-09-25T10:40:24.050Z,16.47
2017-09-25T10:42:51.505Z,20.60
2017-09-25T10:45:18.969Z,15.53
2017-09-25T10:47:46.426Z,18.67
2017-09-25T10:50:13.897Z,15.83
2017-09-25T10:52:41.346Z,16.87
2017-09-25T10:55:08.805Z,22.30
2017-09-25T10:57:36.265Z,18.37
2017-09-25T11:00:03.761Z,16.33
2017-09-25T11:02:31.217Z,24.57
2017-09-25T11:04:58.693Z,17.97
2017-09-25T11:07:26.914Z,15.87
2017-09-25T11:09:54.373Z,16.87
2017-09-25T11:12:21.848Z,18.10
2017-09-25T11:14:49.300Z,16.57
2017-09-25T11:17:16.773Z,22.43
2017-09-25T11:19:44.242Z,19.67
2017-09-25T11:22:12.482Z,15.63
2017-09-25T11:24:39.932Z,14.30
2017-09-25T11:27:07.423Z,23.30
2017-09-25T11:29:34.863Z,16.57
2017-09-25T11:32:02.326Z,15.50
2017-09-25T11:34:29.780Z,21.50
2017-09-25T11:36:57.243Z,15.63
2017-09-25T11:39:24.713Z,15.70
2017-09-25T11:41:52.184Z,16.60
2017-09-25T11:44:19.642Z,17.63
2017-09-25T11:46:47.112Z,18.23
2017-09-25T11:49:15.334Z,16.50
2017-09-25T11:51:42.798Z,16.63
2017-09-25T11:54:10.276Z,15.03
2017-09-25T11:56:37.729Z,15.50
2017-09-25T11:59:05.198Z,17.57
2017-09-25T12:01:32.663Z,15.93
2017-09-25T12:04:00.123Z,15.90
2017-09-25T12:06:28.363Z,16.20
2017-09-25T12:08:55.994Z,15.77
2017-09-25T12:11:24.233Z,21.73
2017-09-25T12:13:52.458Z,18.93
2017-09-25T12:16:19.914Z,18.50
2017-09-25T12:18:47.369Z,17.03
2017-09-25T12:21:15.586Z,18.80
2017-09-25T12:23:43.066Z,17.47
2017-09-25T12:26:11.287Z,18.73
2017-09-25T12:28:39.518Z,16.80
2017-09-25T12:31:07.738Z,19.27
2017-09-25T12:33:35.209Z,18.30
2017-09-25T12:36:02.672Z,18.07
2017-09-25T12:38:30.129Z,20.20
2017-09-25T12:40:57.598Z,19.10
2017-09-25T12:43:25.078Z,17.20
2017-09-25T12:45:52.550Z,17.43
2017-09-25T12:48:20.780Z,17.20
2017-09-25T12:50:48.255Z,16.57
2017-09-25T12:53:15.704Z,16.90
2017-09-25T12:55:43.163Z,15.47
2017-09-25T12:58:10.626Z,17.80
2017-09-25T13:00:38.106Z,19.03
2017-09-25T13:03:06.382Z,14.87
2017-09-25T13:05:34.618Z,16.33
2017-09-25T13:08:02.078Z,18.23
2017-09-25T13:10:29.551Z,15.27
2017-09-25T13:12:57.011Z,17.30
2017-09-25T13:15:24.474Z,16.33
2017-09-25T13:17:52.693Z,16.10
2017-09-25T13:20:20.178Z,16.00
2017-09-25T13:22:47.669Z,16.77
2017-09-25T13:25:15.096Z,15.90
2017-09-25T13:27:42.565Z,16.87
2017-09-25T13:30:10.058Z,17.83
2017-09-25T13:32:37.513Z,15.93
2017-09-25T13:35:04.967Z,15.73
2017-09-25T13:37:33.198Z,17.67
2017-09-25T13:40:00.670Z,15.80
2017-09-25T13:42:28.159Z,16.50
2017-09-25T13:44:56.374Z,17.13
2017-09-25T13:47:23.830Z,16.70
2017-09-25T13:49:52.066Z,15.93
2017-09-25T13:52:20.281Z,18.97
2017-09-25T13:54:47.755Z,17.20
2017-09-25T13:57:15.221Z,15.90
2017-09-25T14:04:49.162Z,12.73
2017-09-25T14:07:17.374Z,13.93
2017-09-25T14:09:45.615Z,11.00
2017-09-25T14:12:13.074Z,11.00
2017-09-25T14:14:40.542Z,9.80
2017-09-25T14:17:07.991Z,9.90
2017-09-25T14:19:35.466Z,9.50
2017-09-25T14:22:03.685Z,10.33
2017-09-25T14:24:31.153Z,10.07
2017-09-25T14:26:59.386Z,8.60
2017-09-25T14:29:27.623Z,9.43
2017-09-25T14:31:55.106Z,9.13
2017-09-25T14:34:23.322Z,9.80
2017-09-25T14:36:51.545Z,9.30
2017-09-25T14:39:18.989Z,9.77
2017-09-25T14:41:46.445Z,9.70
2017-09-25T14:44:14.661Z,10.07
2017-09-25T14:46:42.110Z,9.20
2017-09-25T14:49:10.343Z,10.27
2017-09-25T14:51:37.797Z,10.03
2017-09-25T14:54:05.257Z,11.10
2017-09-25T14:56:32.709Z,10.53
2017-09-25T14:59:00.189Z,10.23
2017-09-25T15:01:27.629Z,11.13
2017-09-25T15:03:55.095Z,12.23
2017-09-25T15:06:22.566Z,11.47
2017-09-25T15:08:50.014Z,10.70
2017-09-25T15:11:17.470Z,11.23
2017-09-25T15:13:44.949Z,12.53
2017-09-25T15:16:12.389Z,11.60
2017-09-25T15:18:39.862Z,11.83
2017-09-25T15:21:07.310Z,12.33
2017-09-25T15:23:34.765Z,10.83
2017-09-25T15:26:02.220Z,10.60
2017-09-25T15:28:29.678Z,11.30
2017-09-25T15:30:57.137Z,11.10
2017-09-25T15:33:24.589Z,11.93
2017-09-25T15:35:52.055Z,11.10
2017-09-25T15:38:19.508Z,11.80
2017-09-25T15:40:46.957Z,12.20
2017-09-25T15:43:14.453Z,12.47
2017-09-25T15:45:42.685Z,12.13
2017-09-25T15:48:11.011Z,12.70
2017-09-25T15:50:38.463Z,12.67
2017-09-25T15:53:05.922Z,13.40
2017-09-25T15:55:33.382Z,11.60
2017-09-25T15:58:00.845Z,12.43
2017-09-25T16:00:28.292Z,13.00
2017-09-25T16:02:55.804Z,14.03
2017-09-25T16:05:23.248Z,13.20
2017-09-25T16:07:50.702Z,12.50
2017-09-25T16:10:18.165Z,12.63
2017-09-25T16:12:46.384Z,14.07
2017-09-25T16:15:14.610Z,15.70
2017-09-25T16:17:42.061Z,14.00
2017-09-25T16:20:09.525Z,16.77
2017-09-25T16:22:36.980Z,14.53
2017-09-25T16:25:04.457Z,13.47
2017-09-25T16:27:31.918Z,15.13
2017-09-25T16:29:59.372Z,14.03
2017-09-25T16:32:26.831Z,15.40
2017-09-25T16:34:54.297Z,13.90
2017-09-25T16:37:21.758Z,13.07
2017-09-25T16:39:49.218Z,15.10
2017-09-25T16:42:16.674Z,16.03
2017-09-25T16:44:44.138Z,14.57
2017-09-25T16:47:11.587Z,14.33
2017-09-25T16:49:39.080Z,14.87
2017-09-25T16:52:07.286Z,17.37
2017-09-25T16:54:34.746Z,15.60
2017-09-25T16:57:02.195Z,15.10
2017-09-25T16:59:29.649Z,15.53
2017-09-25T17:01:57.133Z,16.23
2017-09-25T17:04:24.581Z,14.30
2017-09-25T17:06:52.806Z,17.20
2017-09-25T17:09:21.030Z,16.00
2017-09-25T17:11:48.490Z,16.60
2017-09-25T17:14:15.946Z,17.50
2017-09-25T17:16:43.410Z,15.43
2017-09-25T17:19:10.859Z,15.87
2017-09-25T17:21:38.347Z,21.03
2017-09-25T17:24:05.813Z,15.37
2017-09-25T17:26:34.043Z,17.60
2017-09-25T17:29:01.495Z,15.40
2017-09-25T17:31:28.961Z,19.63
2017-09-25T17:33:56.410Z,17.03
2017-09-25T17:36:23.874Z,16.40
2017-09-25T17:38:51.325Z,18.47
2017-09-25T17:41:18.789Z,15.20
2017-09-25T17:43:46.241Z,20.23
2017-09-25T17:46:13.702Z,18.37
2017-09-25T17:48:41.162Z,14.90
2017-09-25T17:51:08.651Z,15.77
2017-09-25T17:53:36.108Z,18.70
2017-09-25T17:56:03.562Z,18.00
2017-09-25T17:58:32.527Z,15.03
2017-09-25T18:00:59.979Z,16.97
2017-09-25T18:03:27.442Z,18.73
2017-09-25T18:05:54.897Z,16.70
2017-09-25T18:08:23.118Z,16.63
2017-09-25T18:10:51.340Z,16.00
2017-09-25T18:13:18.822Z,18.40
2017-09-25T18:15:46.289Z,18.03
2017-09-25T18:18:14.513Z,19.03
2017-09-25T18:20:41.965Z,18.63
2017-09-25T18:23:09.439Z,16.80
2017-09-25T18:25:36.885Z,18.70
2017-09-25T18:28:05.138Z,16.00
2017-09-25T18:30:33.404Z,16.10
2017-09-25T18:33:00.868Z,16.47
2017-09-25T18:35:29.081Z,14.00
2017-09-25T18:37:56.547Z,20.60
2017-09-25T18:40:24.769Z,17.77
2017-09-25T18:42:52.222Z,15.70
2017-09-25T18:45:19.705Z,16.23
2017-09-25T18:47:47.923Z,15.70
2017-09-25T18:50:15.392Z,15.87
2017-09-25T18:52:42.846Z,16.00
2017-09-25T18:55:10.303Z,16.27
2017-09-25T18:57:37.758Z,13.80
2017-09-25T19:00:05.231Z,16.07
2017-09-25T19:02:32.698Z,15.87
2017-09-25T19:05:01.673Z,18.80
2017-09-25T19:07:30.067Z,15.33
2017-09-25T19:09:57.521Z,15.57
2017-09-25T19:12:24.979Z,17.80
2017-09-25T19:14:52.443Z,16.73
2017-09-25T19:17:19.905Z,14.97
2017-09-25T19:19:47.366Z,17.70
2017-09-25T19:22:14.824Z,18.13
2017-09-25T19:24:43.054Z,17.57
2017-09-25T19:27:10.547Z,17.23
2017-09-25T19:29:38.821Z,15.13
2017-09-25T19:32:07.055Z,16.47
2017-09-25T19:34:35.277Z,14.43
2017-09-25T19:37:03.509Z,14.07
2017-09-25T19:39:30.994Z,15.40
2017-09-25T19:41:58.457Z,17.17
2017-09-25T19:44:26.670Z,14.60
2017-09-25T19:46:54.130Z,14.73
2017-09-25T19:49:22.039Z,14.77
2017-09-25T19:51:49.507Z,16.60
2017-09-25T19:54:17.584Z,15.83
2017-09-25T19:56:45.474Z,15.20
2017-09-25T19:59:13.749Z,15.23
2017-09-25T20:01:41.975Z,14.97
2017-09-25T20:04:09.434Z,17.43
2017-09-25T20:06:37.663Z,15.07
2017-09-25T20:09:05.889Z,15.63
2017-09-25T20:11:33.962Z,13.57
2017-09-25T20:14:02.601Z,14.40
2017-09-25T20:16:32.381Z,13.90
2017-09-25T20:18:59.838Z,14.50
2017-09-25T20:21:27.294Z,14.33
2017-09-25T20:23:54.762Z,15.27
2017-09-25T20:26:22.225Z,14.90
2017-09-25T20:28:49.686Z,16.23
2017-09-25T20:31:17.916Z,13.33
2017-09-25T20:33:45.370Z,15.97
2017-09-25T20:36:12.862Z,13.67
2017-09-25T20:38:41.826Z,14.93
2017-09-25T20:41:10.194Z,15.13
2017-09-25T20:43:37.650Z,15.03
2017-09-25T20:46:05.099Z,16.57
2017-09-25T20:48:32.587Z,14.60
2017-09-25T20:51:00.054Z,16.93
2017-09-25T20:53:28.277Z,13.60
2017-09-25T20:55:55.732Z,12.43
2017-09-25T20:58:23.203Z,13.87
2017-09-25T21:00:51.430Z,12.90
2017-09-25T21:03:18.885Z,15.40
2017-09-25T21:05:46.338Z,13.83
2017-09-25T21:08:13.802Z,12.60
2017-09-25T21:10:41.254Z,14.63
2017-09-25T21:13:10.217Z,14.97
2017-09-25T21:15:38.434Z,13.30
2017-09-25T21:18:05.894Z,13.50
2017-09-25T21:20:33.349Z,14.90
2017-09-25T21:23:01.575Z,15.30
2017-09-25T21:25:29.022Z,14.20
2017-09-25T21:27:56.479Z,12.50
2017-09-25T21:30:23.941Z,13.50
2017-09-25T21:32:51.394Z,13.40
2017-09-25T21:35:18.862Z,13.07
2017-09-25T21:37:46.338Z,12.40
2017-09-25T21:40:13.802Z,15.33
2017-09-25T21:42:41.254Z,13.37
2017-09-25T21:45:08.714Z,15.20
2017-09-25T21:47:36.166Z,12.60
2017-09-25T21:50:03.626Z,15.23
2017-09-25T21:52:31.850Z,11.50
2017-09-25T21:55:00.106Z,11.80
2017-09-25T21:57:27.561Z,12.33
2017-09-25T21:59:55.033Z,12.87
2017-09-25T22:02:23.250Z,14.43
2017-09-25T22:04:50.701Z,13.23
2017-09-25T22:07:18.175Z,11.50
2017-09-25T22:09:45.629Z,14.50
2017-09-25T22:12:13.095Z,12.63
2017-09-25T22:14:40.549Z,11.23
2017-09-25T22:17:07.997Z,12.73
2017-09-25T22:19:35.453Z,12.70
2017-09-25T22:22:03.675Z,11.30
2017-09-25T22:24:31.138Z,12.30
2017-09-25T22:26:59.361Z,11.47
2017-09-25T22:29:27.649Z,11.37
2017-09-25T22:31:55.130Z,12.10
2017-09-25T22:34:22.589Z,12.07
2017-09-25T22:36:50.053Z,11.03
2017-09-25T22:39:19.010Z,11.87
2017-09-25T22:41:46.474Z,12.43
2017-09-25T22:44:18.482Z,11.73
2017-09-25T22:46:46.700Z,11.43
2017-09-25T22:49:14.157Z,12.13
2017-09-25T22:51:41.610Z,14.00
2017-09-25T22:54:09.831Z,11.27
2017-09-25T22:56:37.283Z,11.47
2017-09-25T22:59:04.741Z,12.10
2017-09-25T23:01:32.197Z,11.90
2017-09-25T23:04:00.092Z,11.00
2017-09-25T23:06:28.319Z,10.30
2017-09-25T23:08:55.774Z,11.00
2017-09-25T23:11:33.125Z,16.77
2017-09-25T23:14:01.390Z,12.30
2017-09-25T23:16:29.615Z,14.60
2017-09-25T23:18:57.840Z,10.57
2017-09-25T23:21:26.058Z,13.30
2017-09-25T23:23:53.518Z,12.70
2017-09-25T23:26:20.978Z,12.80
2017-09-25T23:28:49.189Z,13.00
2017-09-25T23:31:17.607Z,11.90
2017-09-25T23:33:45.065Z,12.87
2017-09-25T23:36:12.517Z,11.53
2017-09-25T23:38:39.966Z,12.43
2017-09-25T23:41:08.193Z,12.00
2017-09-25T23:43:35.641Z,11.07
2017-09-25T23:46:03.128Z,10.90
2017-09-25T23:48:31.357Z,11.30
2017-09-25T23:50:58.802Z,11.47
2017-09-25T23:53:27.021Z,12.50
2017-09-25T23:55:54.464Z,9.83
2017-09-25T23:58:21.935Z,12.00
